createdAt,value
2019-05-05T00:02:01.767Z,4.30
2019-05-05T00:04:38.124Z,3.70
2019-05-05T00:07:07.044Z,4.20
2019-05-05T00:09:35.742Z,3.87
2019-05-05T00:12:11.354Z,3.20
2019-05-05T00:14:54.593Z,3.73
2019-05-05T00:17:24.933Z,3.87
2019-05-05T00:19:54.972Z,4.57
2019-05-05T00:22:24.518Z,4.67
2019-05-05T00:24:54.650Z,4.30
2019-05-05T00:27:25.442Z,5.10
2019-05-05T00:29:54.752Z,4.60
2019-05-05T00:32:24.500Z,4.27
2019-05-05T00:34:55.172Z,4.33
2019-05-05T00:37:25.644Z,4.70
2019-05-05T00:39:54.385Z,4.97
2019-05-05T00:42:24.771Z,4.70
2019-05-05T00:44:54.935Z,5.00
2019-05-05T00:47:51.801Z,4.57
2019-05-05T00:50:21.850Z,4.97
2019-05-05T00:52:50.706Z,4.87
2019-05-05T00:55:19.440Z,4.73
2019-05-05T00:57:48.104Z,4.73
2019-05-05T01:00:27.028Z,4.80
2019-05-05T01:02:55.794Z,4.30
2019-05-05T01:05:44.806Z,4.77
2019-05-05T01:08:17.473Z,4.87
2019-05-05T01:10:46.619Z,4.47
2019-05-05T01:13:15.677Z,4.97
2019-05-05T01:15:44.826Z,4.70
2019-05-05T01:18:15.247Z,5.30
2019-05-05T01:20:44.908Z,5.10
2019-05-05T01:23:15.057Z,4.73
2019-05-05T01:25:45.516Z,5.60
2019-05-05T01:28:14.437Z,5.70
2019-05-05T01:30:45.319Z,5.97
2019-05-05T01:33:37.370Z,6.07
2019-05-05T01:36:06.251Z,5.93
2019-05-05T01:38:41.622Z,6.30
2019-05-05T01:41:27.115Z,6.10
2019-05-05T01:43:56.394Z,6.67
2019-05-05T01:46:25.303Z,6.37
2019-05-05T01:48:54.907Z,6.87
2019-05-05T01:51:24.779Z,5.90
2019-05-05T01:53:54.546Z,6.33
2019-05-05T01:56:24.673Z,5.70
2019-05-05T01:58:54.771Z,5.83
2019-05-05T02:01:24.642Z,6.03
2019-05-05T02:03:54.859Z,6.10
2019-05-05T02:06:24.884Z,5.60
2019-05-05T02:08:54.988Z,6.40
2019-05-05T02:11:24.675Z,6.00
2019-05-05T02:13:54.557Z,5.67
2019-05-05T02:16:25.323Z,6.27
2019-05-05T02:18:54.563Z,6.30
2019-05-05T02:21:24.777Z,6.90
2019-05-05T02:23:54.778Z,6.60
2019-05-05T02:26:24.671Z,6.37
2019-05-05T02:29:18.609Z,6.70
2019-05-05T02:32:25.876Z,7.07
2019-05-05T02:34:57.949Z,6.57
2019-05-05T02:37:26.936Z,6.77
2019-05-05T02:40:01.416Z,7.50
2019-05-05T02:42:27.303Z,7.63
2019-05-05T02:44:57.767Z,7.37
2019-05-05T02:47:37.932Z,7.30
2019-05-05T02:50:07.331Z,7.67
2019-05-05T02:52:36.978Z,6.50
2019-05-05T02:55:06.148Z,6.70
2019-05-05T02:57:35.383Z,6.43
2019-05-05T03:00:34.457Z,7.27
2019-05-05T03:03:04.688Z,7.50
2019-05-05T03:05:34.064Z,7.93
2019-05-05T03:08:04.816Z,7.43
2019-05-05T03:10:34.019Z,7.83
2019-05-05T03:13:05.012Z,7.40
2019-05-05T03:15:45.849Z,7.60
2019-05-05T03:18:14.889Z,7.77
2019-05-05T03:20:43.836Z,6.97
2019-05-05T03:23:13.642Z,7.80
2019-05-05T03:25:44.031Z,8.13
2019-05-05T03:28:13.700Z,8.57
2019-05-05T03:30:45.358Z,8.60
2019-05-05T03:33:16.043Z,9.30
2019-05-05T03:35:44.198Z,9.20
2019-05-05T03:38:14.200Z,8.77
2019-05-05T03:40:45.425Z,9.20
2019-05-05T03:43:19.704Z,9.13
2019-05-05T03:45:53.816Z,8.90
2019-05-05T03:48:24.110Z,8.90
2019-05-05T03:50:54.037Z,9.00
2019-05-05T03:53:24.615Z,8.53
2019-05-05T03:55:54.632Z,9.13
2019-05-05T03:58:24.052Z,9.17
2019-05-05T04:01:11.120Z,9.87
2019-05-05T04:03:39.786Z,9.33
2019-05-05T04:06:08.606Z,9.40
2019-05-05T04:08:38.180Z,10.03
2019-05-05T04:11:06.894Z,9.43
2019-05-05T04:13:35.591Z,9.93
2019-05-05T04:16:20.042Z,9.53
2019-05-05T04:18:54.215Z,8.60
2019-05-05T04:21:32.919Z,8.77
2019-05-05T04:23:53.635Z,9.40
2019-05-05T04:26:23.471Z,9.27
2019-05-05T04:28:54.161Z,9.03
2019-05-05T04:31:24.166Z,9.47
2019-05-05T04:33:53.821Z,9.03
2019-05-05T04:36:23.603Z,9.30
2019-05-05T04:38:54.400Z,9.23
2019-05-05T04:41:24.530Z,9.10
2019-05-05T04:43:54.728Z,9.90
2019-05-05T04:46:24.527Z,9.50
2019-05-05T04:48:58.902Z,9.73
2019-05-05T04:51:44.793Z,9.87
2019-05-05T04:54:18.679Z,9.70
2019-05-05T04:56:47.299Z,9.97
2019-05-05T04:59:16.135Z,8.87
2019-05-05T05:01:45.445Z,9.73
2019-05-05T05:04:34.245Z,8.83
2019-05-05T05:07:04.657Z,8.43
2019-05-05T05:09:34.190Z,9.50
2019-05-05T05:12:03.989Z,9.00
2019-05-05T05:14:33.756Z,9.40
2019-05-05T05:17:04.115Z,9.10
2019-05-05T05:19:33.502Z,9.40
2019-05-05T05:22:04.821Z,9.33
2019-05-05T05:24:34.350Z,8.27
2019-05-05T05:27:05.026Z,9.57
2019-05-05T05:29:34.532Z,9.17
2019-05-05T05:32:04.172Z,9.40
2019-05-05T05:34:34.424Z,9.43
2019-05-05T05:37:04.239Z,9.40
2019-05-05T05:39:45.043Z,9.57
2019-05-05T05:42:14.071Z,9.37
2019-05-05T05:45:04.788Z,8.93
2019-05-05T05:47:53.687Z,9.23
2019-05-05T05:50:44.981Z,8.90
2019-05-05T05:53:14.041Z,8.47
2019-05-05T05:55:44.799Z,8.83
2019-05-05T05:58:14.103Z,8.70
2019-05-05T06:00:44.267Z,8.93
2019-05-05T06:03:14.080Z,8.67
2019-05-05T06:05:43.735Z,8.37
2019-05-05T06:08:14.182Z,8.53
2019-05-05T06:10:44.326Z,8.13
2019-05-05T06:13:15.329Z,8.47
2019-05-05T06:15:44.364Z,7.87
2019-05-05T06:18:13.845Z,7.67
2019-05-05T06:20:44.595Z,8.43
2019-05-05T06:23:14.747Z,8.10
2019-05-05T06:25:44.616Z,8.23
2019-05-05T06:28:14.490Z,7.77
2019-05-05T06:30:44.363Z,8.77
2019-05-05T06:33:14.007Z,8.33
2019-05-05T06:35:44.367Z,8.47
2019-05-05T06:38:13.683Z,7.63
2019-05-05T06:41:07.695Z,7.83
2019-05-05T06:44:07.490Z,7.80
2019-05-05T06:46:53.867Z,7.33
2019-05-05T06:49:23.821Z,8.03
2019-05-05T06:51:54.654Z,7.57
2019-05-05T06:54:24.168Z,7.07
2019-05-05T06:56:53.866Z,7.80
2019-05-05T06:59:24.290Z,8.00
2019-05-05T07:01:53.659Z,7.27
2019-05-05T07:04:24.422Z,7.30
2019-05-05T07:06:56.305Z,7.27
2019-05-05T07:09:24.469Z,7.63
2019-05-05T07:11:54.215Z,8.10
2019-05-05T07:14:23.687Z,7.63
2019-05-05T07:16:54.362Z,7.87
2019-05-05T07:19:23.910Z,7.93
2019-05-05T07:21:53.817Z,8.07
2019-05-05T07:24:23.895Z,8.10
2019-05-05T07:26:54.096Z,7.90
2019-05-05T07:29:23.879Z,8.07
2019-05-05T07:31:54.528Z,7.30
2019-05-05T07:34:24.230Z,7.60
2019-05-05T07:36:54.788Z,7.20
2019-05-05T07:39:23.893Z,7.07
2019-05-05T07:41:54.185Z,7.50
2019-05-05T07:44:29.176Z,6.90
2019-05-05T07:46:54.460Z,7.47
2019-05-05T07:49:24.365Z,6.87
2019-05-05T07:51:54.672Z,7.90
2019-05-05T07:54:23.764Z,7.27
2019-05-05T07:56:53.851Z,7.10
2019-05-05T07:59:23.823Z,6.90
2019-05-05T08:01:54.811Z,7.93
2019-05-05T08:04:24.234Z,7.93
2019-05-05T08:06:53.868Z,7.27
2019-05-05T08:09:24.782Z,7.67
2019-05-05T08:11:54.166Z,6.90
2019-05-05T08:14:24.563Z,7.10
2019-05-05T08:17:24.670Z,6.67
2019-05-05T08:20:14.251Z,6.73
2019-05-05T08:22:44.335Z,7.20
2019-05-05T08:25:36.390Z,7.23
2019-05-05T08:28:08.988Z,7.40
2019-05-05T08:30:51.314Z,7.37
2019-05-05T08:33:20.046Z,7.03
2019-05-05T08:35:48.817Z,7.07
2019-05-05T08:38:17.786Z,7.20
2019-05-05T08:40:46.764Z,7.17
2019-05-05T08:43:15.516Z,7.50
2019-05-05T08:45:44.507Z,7.77
2019-05-05T08:48:14.207Z,7.43
2019-05-05T08:50:44.049Z,6.93
2019-05-05T08:53:13.865Z,8.70
2019-05-05T08:55:44.318Z,7.43
2019-05-05T08:58:14.863Z,7.50
2019-05-05T09:00:44.497Z,7.07
2019-05-05T09:03:13.890Z,7.07
2019-05-05T09:05:43.737Z,6.70
2019-05-05T09:08:13.843Z,7.70
2019-05-05T09:10:44.771Z,7.70
2019-05-05T09:13:14.448Z,6.73
2019-05-05T09:15:44.280Z,8.03
2019-05-05T09:18:14.136Z,7.80
2019-05-05T09:20:44.573Z,8.27
2019-05-05T09:23:14.734Z,8.00
2019-05-05T09:26:15.238Z,7.17
2019-05-05T09:29:05.790Z,6.90
2019-05-05T09:31:34.458Z,6.40
2019-05-05T09:34:04.142Z,6.20
2019-05-05T09:36:34.862Z,6.30
2019-05-05T09:39:05.551Z,6.30
2019-05-05T09:41:34.447Z,6.97
2019-05-05T09:44:04.428Z,7.23
2019-05-05T09:46:34.052Z,6.90
2019-05-05T09:49:04.690Z,7.40
2019-05-05T09:51:34.766Z,6.33
2019-05-05T09:54:13.765Z,6.80
2019-05-05T09:56:34.561Z,6.33
2019-05-05T09:59:03.843Z,6.37
2019-05-05T10:01:33.883Z,6.50
2019-05-05T10:04:10.012Z,6.60
2019-05-05T10:06:39.348Z,6.30
2019-05-05T10:09:08.922Z,5.97
2019-05-05T10:11:37.965Z,6.60
2019-05-05T10:14:07.394Z,6.00
2019-05-05T10:16:37.070Z,5.50
2019-05-05T10:19:05.858Z,5.80
2019-05-05T10:21:34.548Z,5.50
2019-05-05T10:24:08.706Z,6.20
2019-05-05T10:26:37.526Z,5.00
2019-05-05T10:29:06.422Z,5.93
2019-05-05T10:31:35.705Z,5.47
2019-05-05T10:34:06.746Z,5.13
2019-05-05T10:36:35.676Z,5.37
2019-05-05T10:39:11.682Z,5.13
2019-05-05T10:41:40.674Z,5.17
2019-05-05T10:44:09.613Z,5.87
2019-05-05T10:46:38.556Z,4.77
2019-05-05T10:49:07.693Z,4.97
2019-05-05T10:51:36.478Z,5.17
2019-05-05T10:54:05.278Z,5.30
2019-05-05T10:56:34.586Z,5.27
2019-05-05T10:59:04.000Z,4.97
2019-05-05T11:01:32.869Z,5.03
2019-05-05T11:04:01.886Z,5.43
2019-05-05T11:06:30.516Z,5.07
2019-05-05T11:08:59.911Z,4.77
2019-05-05T11:11:28.760Z,4.40
2019-05-05T11:13:57.517Z,5.53
2019-05-05T11:16:26.156Z,4.60
2019-05-05T11:18:54.918Z,5.27
2019-05-05T11:21:23.733Z,5.00
2019-05-05T11:23:53.918Z,4.50
2019-05-05T11:26:24.694Z,4.60
2019-05-05T11:28:53.906Z,4.60
2019-05-05T11:31:23.932Z,4.60
2019-05-05T11:34:01.904Z,4.30
2019-05-05T11:36:48.280Z,4.27
2019-05-05T11:39:16.940Z,4.47
2019-05-05T11:41:45.664Z,4.70
2019-05-05T11:44:15.137Z,3.67
2019-05-05T11:46:44.343Z,3.87
2019-05-05T11:49:13.941Z,4.03
2019-05-05T11:51:43.733Z,3.80
2019-05-05T11:54:14.066Z,3.80
2019-05-05T11:56:44.717Z,3.87
2019-05-05T11:59:14.457Z,3.70
2019-05-05T12:01:44.049Z,3.80
2019-05-05T12:04:14.657Z,3.83
2019-05-05T12:06:44.278Z,4.17
2019-05-05T12:09:25.639Z,3.20
2019-05-05T12:11:54.609Z,3.43
2019-05-05T12:14:27.246Z,3.53
2019-05-05T12:16:56.186Z,3.30
2019-05-05T12:19:24.801Z,3.60
2019-05-05T12:21:54.741Z,3.37
2019-05-05T12:24:28.967Z,3.20
2019-05-05T12:27:14.223Z,2.93
2019-05-05T12:29:47.185Z,2.90
2019-05-05T12:32:15.821Z,3.23
2019-05-05T12:34:44.632Z,3.50
2019-05-05T12:37:14.250Z,3.40
2019-05-05T12:39:44.257Z,3.70
2019-05-05T12:42:14.040Z,3.40
2019-05-05T12:44:48.838Z,3.30
2019-05-05T12:47:51.643Z,3.10
2019-05-05T12:50:20.543Z,3.33
2019-05-05T12:52:49.203Z,3.50
2019-05-05T12:55:17.831Z,2.93
2019-05-05T12:57:49.007Z,2.90
2019-05-05T13:00:19.526Z,2.80
2019-05-05T13:02:48.553Z,3.03
2019-05-05T13:05:17.138Z,2.60
2019-05-05T13:07:46.051Z,2.90
2019-05-05T13:10:16.261Z,2.67
2019-05-05T13:12:45.373Z,2.70
2019-05-05T13:15:14.407Z,2.80
2019-05-05T13:17:43.789Z,2.97
2019-05-05T13:20:24.589Z,3.13
2019-05-05T13:23:01.119Z,2.70
2019-05-05T13:25:55.972Z,2.53
2019-05-05T13:28:17.268Z,2.40
2019-05-05T13:30:46.195Z,2.53
2019-05-05T13:33:14.799Z,2.33
2019-05-05T13:35:43.517Z,2.67
2019-05-05T13:38:12.101Z,2.50
2019-05-05T13:40:40.738Z,2.23
2019-05-05T13:43:09.456Z,2.20
2019-05-05T13:45:57.305Z,2.20
2019-05-05T13:48:26.164Z,3.00
2019-05-05T13:50:58.645Z,2.13
2019-05-05T13:53:27.589Z,2.60
2019-05-05T13:56:08.761Z,2.40
2019-05-05T13:58:26.428Z,2.40
2019-05-05T14:00:55.168Z,2.40
2019-05-05T14:03:23.787Z,2.20
2019-05-05T14:05:54.105Z,2.10
2019-05-05T14:08:23.780Z,2.70
2019-05-05T14:10:53.999Z,2.30
2019-05-05T14:13:24.753Z,2.60
2019-05-05T14:15:54.495Z,2.67
2019-05-05T14:18:23.705Z,2.90
2019-05-05T14:20:52.623Z,2.70
2019-05-05T14:23:21.489Z,2.83
2019-05-05T14:25:50.492Z,2.70
2019-05-05T14:28:19.247Z,2.97
2019-05-05T14:31:14.141Z,2.60
2019-05-05T14:33:54.232Z,2.97
2019-05-05T14:36:30.642Z,2.80
2019-05-05T14:38:59.709Z,2.27
2019-05-05T14:41:28.757Z,2.80
2019-05-05T14:43:57.503Z,2.13
2019-05-05T14:46:26.277Z,2.33
2019-05-05T14:48:55.575Z,2.40
2019-05-05T14:51:24.725Z,1.87
2019-05-05T14:53:54.333Z,2.23
2019-05-05T14:56:35.416Z,2.00
2019-05-05T14:58:54.322Z,1.90
2019-05-05T15:01:24.773Z,1.70
2019-05-05T15:03:53.594Z,1.70
2019-05-05T15:06:50.575Z,1.57
2019-05-05T15:09:36.785Z,1.83
2019-05-05T15:12:23.736Z,1.80
2019-05-05T15:14:54.622Z,1.80
2019-05-05T15:17:24.625Z,1.67
2019-05-05T15:19:54.103Z,2.00
2019-05-05T15:22:23.899Z,1.60
2019-05-05T15:24:53.636Z,1.77
2019-05-05T15:27:24.251Z,1.70
2019-05-05T15:29:54.281Z,1.60
2019-05-05T15:32:23.967Z,1.90
2019-05-05T15:34:54.518Z,2.00
2019-05-05T15:37:23.829Z,1.60
2019-05-05T15:39:53.546Z,2.00
2019-05-05T15:42:22.660Z,1.83
2019-05-05T15:44:51.290Z,1.37
2019-05-05T15:47:19.866Z,1.83
2019-05-05T15:49:49.041Z,1.70
2019-05-05T15:52:20.059Z,1.80
2019-05-05T15:54:48.091Z,1.80
2019-05-05T15:57:18.265Z,1.60
2019-05-05T15:59:47.134Z,1.70
2019-05-05T16:02:15.784Z,1.70
2019-05-05T16:04:44.513Z,1.60
2019-05-05T16:07:13.857Z,1.50
2019-05-05T16:09:44.361Z,1.70
2019-05-05T16:12:14.384Z,2.07
2019-05-05T16:14:54.530Z,1.80
2019-05-05T16:17:45.262Z,1.93
2019-05-05T16:20:33.282Z,1.80
2019-05-05T16:23:25.546Z,1.60
2019-05-05T16:25:54.319Z,1.60
2019-05-05T16:28:25.124Z,1.50
2019-05-05T16:30:56.055Z,1.53
2019-05-05T16:33:24.267Z,1.63
2019-05-05T16:35:53.065Z,1.50
2019-05-05T16:38:23.902Z,1.50
2019-05-05T16:40:53.759Z,2.00
2019-05-05T16:43:24.675Z,1.60
2019-05-05T16:45:53.782Z,1.50
2019-05-05T16:48:25.376Z,1.80
2019-05-05T16:50:54.180Z,1.73
2019-05-05T16:53:36.165Z,1.90
2019-05-05T16:56:07.003Z,1.63
2019-05-05T16:58:35.745Z,1.87
2019-05-05T17:01:05.293Z,1.80
2019-05-05T17:03:34.011Z,2.00
2019-05-05T17:06:03.781Z,1.80
2019-05-05T17:08:33.803Z,1.97
2019-05-05T17:11:02.620Z,1.67
2019-05-05T17:13:56.479Z,1.90
2019-05-05T17:16:51.922Z,2.10
2019-05-05T17:19:24.815Z,1.80
2019-05-05T17:22:10.999Z,2.60
2019-05-05T17:24:39.720Z,2.17
2019-05-05T17:27:08.334Z,2.00
2019-05-05T17:29:37.034Z,2.10
2019-05-05T17:32:05.659Z,1.90
2019-05-05T17:34:34.525Z,1.60
2019-05-05T17:37:04.327Z,1.87
2019-05-05T17:39:35.585Z,1.73
2019-05-05T17:42:34.640Z,1.53
2019-05-05T17:45:14.126Z,1.40
2019-05-05T17:47:47.057Z,1.90
2019-05-05T17:50:26.370Z,1.77
2019-05-05T17:53:34.299Z,1.70
2019-05-05T17:56:04.022Z,2.00
2019-05-05T17:58:34.048Z,1.80
2019-05-05T18:01:03.799Z,1.80
2019-05-05T18:03:34.110Z,1.70
2019-05-05T18:06:17.313Z,1.83
2019-05-05T18:08:54.746Z,1.60
2019-05-05T18:11:28.584Z,1.90
2019-05-05T18:14:01.095Z,2.10
2019-05-05T18:16:29.828Z,2.07
2019-05-05T18:18:58.445Z,1.70
2019-05-05T18:21:31.770Z,1.87
2019-05-05T18:23:57.559Z,1.30
2019-05-05T18:26:26.283Z,1.37
2019-05-05T18:28:54.957Z,1.47
2019-05-05T18:31:24.281Z,1.60
2019-05-05T18:33:54.310Z,1.40
2019-05-05T18:36:23.623Z,1.60
2019-05-05T18:38:53.815Z,1.53
2019-05-05T18:41:29.434Z,1.60
2019-05-05T18:44:10.120Z,1.63
2019-05-05T18:46:38.960Z,1.63
2019-05-05T18:49:07.545Z,1.60
2019-05-05T18:51:36.146Z,1.80
2019-05-05T18:54:04.843Z,1.87
2019-05-05T18:56:34.733Z,1.97
2019-05-05T18:59:06.461Z,1.60
2019-05-05T19:01:55.943Z,1.67
2019-05-05T19:04:30.423Z,1.73
2019-05-05T19:07:02.962Z,1.70
2019-05-05T19:09:31.581Z,1.73
2019-05-05T19:12:00.182Z,1.67
2019-05-05T19:14:30.214Z,1.87
2019-05-05T19:16:59.170Z,1.90
2019-05-05T19:19:27.810Z,1.70
2019-05-05T19:21:59.915Z,1.93
2019-05-05T19:24:28.720Z,2.23
2019-05-05T19:26:59.080Z,2.00
2019-05-05T19:29:27.994Z,2.10
2019-05-05T19:31:56.640Z,2.37
2019-05-05T19:34:25.388Z,3.23
2019-05-05T19:36:54.646Z,3.13
2019-05-05T19:39:24.299Z,3.27
2019-05-05T19:41:54.310Z,3.77
2019-05-05T19:44:25.824Z,3.80
2019-05-05T19:47:13.756Z,3.63
2019-05-05T19:49:45.293Z,4.13
2019-05-05T19:52:13.916Z,4.10
2019-05-05T19:54:46.852Z,4.63
2019-05-05T19:57:14.415Z,4.63
2019-05-05T19:59:44.721Z,4.40
2019-05-05T20:02:13.516Z,4.80
2019-05-05T20:04:44.364Z,4.80
2019-05-05T20:07:13.974Z,4.90
2019-05-05T20:09:43.551Z,4.70
2019-05-05T20:12:14.629Z,4.93
2019-05-05T20:14:43.600Z,4.97
2019-05-05T20:17:22.796Z,5.20
2019-05-05T20:19:51.444Z,4.93
2019-05-05T20:22:20.035Z,5.43
2019-05-05T20:24:48.826Z,5.47
2019-05-05T20:27:17.447Z,5.30
2019-05-05T20:29:46.253Z,5.40
2019-05-05T20:32:17.058Z,5.00
2019-05-05T20:34:57.960Z,4.93
2019-05-05T20:37:46.048Z,5.37
2019-05-05T20:40:15.822Z,5.03
2019-05-05T20:42:44.890Z,5.03
2019-05-05T20:45:16.276Z,5.33
2019-05-05T20:47:45.008Z,5.37
2019-05-05T20:50:13.778Z,4.67
2019-05-05T20:52:44.219Z,5.43
2019-05-05T20:55:14.086Z,5.07
2019-05-05T20:57:44.324Z,5.70
2019-05-05T21:00:15.157Z,5.13
2019-05-05T21:02:43.829Z,5.40
2019-05-05T21:05:14.475Z,5.00
2019-05-05T21:07:44.360Z,5.40
2019-05-05T21:10:14.354Z,5.30
2019-05-05T21:12:45.571Z,5.53
2019-05-05T21:15:14.375Z,5.33
2019-05-05T21:17:44.862Z,5.50
2019-05-05T21:20:14.489Z,5.73
2019-05-05T21:22:50.310Z,5.80
2019-05-05T21:25:27.346Z,5.90
2019-05-05T21:27:56.079Z,5.17
2019-05-05T21:30:25.121Z,5.60
2019-05-05T21:32:54.705Z,5.73
2019-05-05T21:35:24.075Z,5.90
2019-05-05T21:37:54.297Z,5.90
2019-05-05T21:40:24.992Z,6.07
2019-05-05T21:42:54.354Z,6.27
2019-05-05T21:45:23.023Z,6.27
2019-05-05T21:47:51.725Z,6.03
2019-05-05T21:50:25.841Z,6.70
2019-05-05T21:53:15.655Z,6.30
2019-05-05T21:56:09.532Z,5.93
2019-05-05T21:58:41.367Z,6.30
2019-05-05T22:01:20.125Z,6.50
2019-05-05T22:03:48.897Z,6.23
2019-05-05T22:06:17.995Z,7.17
2019-05-05T22:08:46.785Z,7.10
2019-05-05T22:11:15.607Z,7.17
2019-05-05T22:13:44.446Z,7.23
2019-05-05T22:16:13.630Z,6.40
2019-05-05T22:18:44.619Z,6.67
2019-05-05T22:21:22.003Z,6.67
2019-05-05T22:24:08.666Z,7.10
2019-05-05T22:26:37.341Z,6.97
2019-05-05T22:29:06.065Z,7.70
2019-05-05T22:31:34.895Z,7.30
2019-05-05T22:34:05.321Z,6.73
2019-05-05T22:36:34.057Z,6.73
2019-05-05T22:39:02.995Z,6.50
2019-05-05T22:41:33.622Z,6.17
2019-05-05T22:44:04.365Z,6.53
2019-05-05T22:46:34.641Z,6.60
2019-05-05T22:49:03.897Z,6.80
2019-05-05T22:51:33.791Z,6.70
2019-05-05T22:54:03.935Z,6.40
2019-05-05T22:56:33.753Z,6.47
2019-05-05T22:59:04.498Z,6.47
2019-05-05T23:01:33.353Z,6.17
2019-05-05T23:04:24.322Z,6.63
2019-05-05T23:06:57.206Z,6.77
2019-05-05T23:09:25.931Z,7.07
2019-05-05T23:11:55.195Z,6.77
2019-05-05T23:14:30.635Z,6.93
2019-05-05T23:17:18.727Z,6.87
2019-05-05T23:19:53.889Z,6.90
2019-05-05T23:22:44.859Z,6.13
2019-05-05T23:25:19.997Z,5.90
2019-05-05T23:27:49.856Z,6.60
2019-05-05T23:30:19.631Z,6.43
2019-05-05T23:32:48.512Z,5.97
2019-05-05T23:35:18.437Z,5.80
2019-05-05T23:37:47.595Z,6.23
2019-05-05T23:40:24.701Z,6.07
2019-05-05T23:42:54.278Z,6.10
2019-05-05T23:45:24.790Z,6.47
2019-05-05T23:47:54.583Z,6.13
2019-05-05T23:50:23.849Z,5.93
2019-05-05T23:52:54.569Z,7.00
2019-05-05T23:55:24.115Z,6.77
2019-05-05T23:57:54.797Z,7.00
